Time;durP1;ratioP1;P1;durP2;ratioP2;P2;SDS_P1;SDS_P2;PMS_P1;PMS_P2;Temp;Humidity;BMP_temperature;BMP_pressure;BME280_temperature;BME280_humidity;BME280_pressure;Samples;Min_cycle;Max_cycle;Signal;HPM_P1;HPM_P2
2021/06/18 00:01:50;;;;;;;5.95;5.35;;;;;;;;;;5003753;28;20479;-58
2021/06/18 00:04:15;;;;;;;5.60;5.10;;;;;;;;;;5008209;28;20431;-58
2021/06/18 00:06:40;;;;;;;5.90;5.30;;;;;;;;;;5008392;28;20521;-59
2021/06/18 00:09:07;;;;;;;5.78;5.28;;;;;;;;;;5003838;28;20062;-57
2021/06/18 00:11:32;;;;;;;6.22;5.63;;;;;;;;;;5009249;28;20125;-55
2021/06/18 00:13:58;;;;;;;5.90;5.30;;;;;;;;;;5002266;28;20109;-57
2021/06/18 00:16:23;;;;;;;5.53;5.03;;;;;;;;;;4999160;28;20041;-56
2021/06/18 00:18:48;;;;;;;5.72;5.22;;;;;;;;;;5007960;28;20037;-57
2021/06/18 00:21:14;;;;;;;6.07;5.57;;;;;;;;;;5009092;28;20533;-57
2021/06/18 00:23:39;;;;;;;6.18;5.57;;;;;;;;;;4996099;28;20121;-55
2021/06/18 00:26:04;;;;;;;5.63;5.13;;;;;;;;;;5000825;28;20074;-57
2021/06/18 00:28:30;;;;;;;5.43;4.93;;;;;;;;;;5008481;28;20026;-54
2021/06/18 00:30:55;;;;;;;5.82;5.30;;;;;;;;;;5009133;28;20069;-52
2021/06/18 00:33:20;;;;;;;5.50;5.00;;;;;;;;;;5008403;28;20097;-55
2021/06/18 00:35:46;;;;;;;6.03;5.50;;;;;;;;;;5002795;28;20113;-54
2021/06/18 00:38:11;;;;;;;6.40;5.80;;;;;;;;;;5002812;28;20065;-54
2021/06/18 00:40:36;;;;;;;5.88;5.38;;;;;;;;;;5008902;28;20049;-55
2021/06/18 00:43:02;;;;;;;6.10;5.50;;;;;;;;;;5017948;28;20386;-56
2021/06/18 00:45:27;;;;;;;6.35;5.78;;;;;;;;;;5024738;28;20032;-53
2021/06/18 00:47:58;;;;;;;5.60;5.10;;;;;;;;;;4992974;28;20109;-56
2021/06/18 00:50:23;;;;;;;5.90;5.40;;;;;;;;;;4988720;28;20026;-56
2021/06/18 00:52:49;;;;;;;6.00;5.50;;;;;;;;;;4989384;28;20030;-56
2021/06/18 00:55:14;;;;;;;6.43;5.68;;;;;;;;;;4971523;28;20510;-56
2021/06/18 00:57:40;;;;;;;5.55;5.05;;;;;;;;;;4993052;28;20381;-54
2021/06/18 01:00:10;;;;;;;5.82;5.18;;;;;;;;;;5008615;28;20109;-54
2021/06/18 01:02:39;;;;;;;5.75;5.25;;;;;;;;;;5008022;28;20109;-57
2021/06/18 01:05:09;;;;;;;6.38;5.38;;;;;;;;;;5007490;28;20030;-53
2021/06/18 01:07:57;;;;;;;6.63;5.40;;;;;;;;;;5008046;28;20104;-58
2021/06/18 01:10:38;;;;;;;6.00;5.43;;;;;;;;;;4987233;28;20038;-56
2021/06/18 01:13:06;;;;;;;6.20;5.70;;;;;;;;;;4988399;28;20033;-56
2021/06/18 01:15:58;;;;;;;6.13;5.63;;;;;;;;;;4975105;28;20096;-57
2021/06/18 01:18:27;;;;;;;5.90;5.30;;;;;;;;;;5006445;28;20469;-54
2021/06/18 01:20:58;;;;;;;6.25;5.65;;;;;;;;;;4987258;28;20083;-55
2021/06/18 01:23:29;;;;;;;5.88;5.28;;;;;;;;;;4988909;28;20027;-53
2021/06/18 01:26:06;;;;;;;6.23;5.63;;;;;;;;;;4988806;28;20026;-54
2021/06/18 01:28:57;;;;;;;5.53;5.03;;;;;;;;;;4988701;28;20264;-53
2021/06/18 01:31:25;;;;;;;6.05;5.47;;;;;;;;;;4990599;28;20018;-53
2021/06/18 01:34:01;;;;;;;5.80;5.20;;;;;;;;;;4988911;28;20022;-52
2021/06/18 01:36:26;;;;;;;5.60;5.10;;;;;;;;;;4996118;28;20033;-56
2021/06/18 01:38:52;;;;;;;5.85;5.25;;;;;;;;;;5006062;28;20108;-54
2021/06/18 01:41:22;;;;;;;5.97;5.47;;;;;;;;;;5027635;28;20030;-54
2021/06/18 01:43:47;;;;;;;6.03;5.50;;;;;;;;;;5022843;28;20056;-53
2021/06/18 01:46:14;;;;;;;6.25;5.30;;;;;;;;;;5003502;28;20089;-56
2021/06/18 01:48:40;;;;;;;5.30;4.80;;;;;;;;;;5010954;28;20034;-53
2021/06/18 01:51:05;;;;;;;6.30;5.70;;;;;;;;;;4978277;28;20030;-54
2021/06/18 01:53:30;;;;;;;5.78;5.25;;;;;;;;;;4976874;28;20022;-55
2021/06/18 01:55:56;;;;;;;5.68;5.18;;;;;;;;;;5010263;28;20102;-55
2021/06/18 01:58:21;;;;;;;5.78;5.28;;;;;;;;;;5010294;28;20036;-53
2021/06/18 02:00:48;;;;;;;5.90;5.40;;;;;;;;;;5010189;28;20013;-54
2021/06/18 02:03:15;;;;;;;5.53;5.07;;;;;;;;;;5010184;28;20238;-56
2021/06/18 02:05:40;;;;;;;5.70;5.20;;;;;;;;;;5009708;28;20029;-54
2021/06/18 02:08:06;;;;;;;5.90;5.30;;;;;;;;;;5009515;28;20026;-53
2021/06/18 02:10:33;;;;;;;6.15;5.30;;;;;;;;;;4977921;28;20030;-53
2021/06/18 02:12:58;;;;;;;5.30;4.80;;;;;;;;;;4977166;28;20474;-57
2021/06/18 02:15:24;;;;;;;5.72;5.20;;;;;;;;;;4976858;28;20041;-53
2021/06/18 02:17:49;;;;;;;5.60;5.10;;;;;;;;;;4993323;28;20478;-54
2021/06/18 02:20:15;;;;;;;5.22;4.82;;;;;;;;;;5009960;28;20437;-55
2021/06/18 02:22:40;;;;;;;5.50;5.00;;;;;;;;;;5007125;28;20525;-57
2021/06/18 02:25:07;;;;;;;5.43;4.93;;;;;;;;;;4990768;28;20026;-58
2021/06/18 02:27:32;;;;;;;6.20;5.60;;;;;;;;;;5010766;28;20029;-52
2021/06/18 02:29:57;;;;;;;5.88;5.28;;;;;;;;;;5009864;28;20485;-54
2021/06/18 02:32:23;;;;;;;5.60;5.10;;;;;;;;;;5009469;28;20087;-54
2021/06/18 02:34:49;;;;;;;5.43;4.93;;;;;;;;;;5003324;28;20101;-54
2021/06/18 02:37:14;;;;;;;5.70;5.20;;;;;;;;;;4991094;28;20103;-56
2021/06/18 02:39:42;;;;;;;5.05;4.55;;;;;;;;;;5006749;28;20478;-56
2021/06/18 02:42:08;;;;;;;5.72;5.22;;;;;;;;;;5013154;28;20086;-56
2021/06/18 02:44:33;;;;;;;5.90;5.40;;;;;;;;;;5030292;28;20034;-53
2021/06/18 02:47:21;;;;;;;6.13;5.60;;;;;;;;;;5011632;28;20068;-56
2021/06/18 02:50:25;;;;;;;5.18;4.68;;;;;;;;;;5003571;28;20621;-54
2021/06/18 02:52:56;;;;;;;5.57;5.07;;;;;;;;;;4919425;29;20391;-55
2021/06/18 02:55:29;;;;;;;5.10;4.70;;;;;;;;;;4914309;29;20059;-53
2021/06/18 02:57:57;;;;;;;5.00;4.60;;;;;;;;;;4946731;28;20070;-55
2021/06/18 03:00:22;;;;;;;5.82;5.32;;;;;;;;;;4990542;28;20034;-53
2021/06/18 03:02:56;;;;;;;5.15;4.75;;;;;;;;;;4992553;28;20104;-55
2021/06/18 03:05:23;;;;;;;5.90;5.40;;;;;;;;;;4991974;28;20029;-53
2021/06/18 03:07:53;;;;;;;5.68;5.18;;;;;;;;;;5008917;28;20026;-57
2021/06/18 03:10:24;;;;;;;5.40;4.90;;;;;;;;;;5000408;28;20022;-56
2021/06/18 03:12:49;;;;;;;5.25;4.75;;;;;;;;;;4973768;28;20026;-56
2021/06/18 03:15:15;;;;;;;5.43;4.93;;;;;;;;;;4974389;28;20042;-53
2021/06/18 03:17:41;;;;;;;5.70;5.20;;;;;;;;;;5006568;28;20025;-52
2021/06/18 03:20:09;;;;;;;5.32;4.82;;;;;;;;;;5008115;28;20052;-54
2021/06/18 03:22:34;;;;;;;6.15;5.53;;;;;;;;;;5005920;28;20475;-57
2021/06/18 03:25:01;;;;;;;5.65;5.15;;;;;;;;;;4972571;28;20036;-52
2021/06/18 03:27:27;;;;;;;5.10;4.65;;;;;;;;;;4971840;28;20105;-55
2021/06/18 03:29:52;;;;;;;5.40;4.90;;;;;;;;;;4976069;28;20101;-60
2021/06/18 03:32:18;;;;;;;6.05;5.45;;;;;;;;;;4992183;28;20065;-57
2021/06/18 03:34:43;;;;;;;5.50;5.00;;;;;;;;;;4988649;28;20026;-54
2021/06/18 03:37:09;;;;;;;5.70;5.18;;;;;;;;;;4989029;28;20031;-54
2021/06/18 03:39:34;;;;;;;5.90;5.35;;;;;;;;;;5000498;28;20379;-56
2021/06/18 03:42:00;;;;;;;5.32;4.82;;;;;;;;;;4959131;28;20041;-54
2021/06/18 03:44:25;;;;;;;5.40;4.90;;;;;;;;;;4989997;28;20062;-53
2021/06/18 03:46:51;;;;;;;5.50;5.00;;;;;;;;;;5002768;28;20033;-53
2021/06/18 03:49:16;;;;;;;5.38;4.88;;;;;;;;;;5007858;28;20032;-54
2021/06/18 03:51:41;;;;;;;5.32;4.82;;;;;;;;;;4992066;28;20041;-53
2021/06/18 03:54:07;;;;;;;4.88;4.40;;;;;;;;;;5001281;28;20567;-52
2021/06/18 03:56:33;;;;;;;5.43;4.93;;;;;;;;;;5008748;28;20386;-56
2021/06/18 03:58:58;;;;;;;4.82;4.43;;;;;;;;;;5007197;28;20022;-55
2021/06/18 04:01:27;;;;;;;5.25;4.75;;;;;;;;;;4991420;28;20021;-56
2021/06/18 04:03:52;;;;;;;5.40;4.90;;;;;;;;;;5009137;28;20034;-55
2021/06/18 04:06:18;;;;;;;5.45;4.95;;;;;;;;;;5007058;28;20102;-55
2021/06/18 04:08:43;;;;;;;4.78;4.38;;;;;;;;;;5007162;28;20133;-53
2021/06/18 04:11:09;;;;;;;5.43;4.93;;;;;;;;;;4975485;28;20022;-54
2021/06/18 04:13:35;;;;;;;5.40;4.85;;;;;;;;;;4991120;28;20029;-53
2021/06/18 04:16:00;;;;;;;5.38;4.88;;;;;;;;;;4990338;28;20120;-53
2021/06/18 04:18:26;;;;;;;5.53;5.03;;;;;;;;;;5007237;28;20455;-56
2021/06/18 04:20:51;;;;;;;5.07;4.65;;;;;;;;;;4991868;28;20029;-54
2021/06/18 04:23:24;;;;;;;5.50;4.95;;;;;;;;;;5000072;28;20022;-55
2021/06/18 04:25:50;;;;;;;4.90;4.50;;;;;;;;;;4989126;28;20483;-54
2021/06/18 04:28:15;;;;;;;5.28;4.80;;;;;;;;;;5005848;28;20028;-54
2021/06/18 04:30:40;;;;;;;4.95;4.55;;;;;;;;;;5008625;28;20486;-57
2021/06/18 04:33:06;;;;;;;5.38;4.88;;;;;;;;;;5008585;28;20080;-55
2021/06/18 04:35:31;;;;;;;5.43;4.93;;;;;;;;;;5008373;28;20045;-52
2021/06/18 04:37:58;;;;;;;5.57;5.07;;;;;;;;;;4990044;28;20118;-56
2021/06/18 04:40:23;;;;;;;5.07;4.68;;;;;;;;;;4969166;28;20026;-57
2021/06/18 04:42:48;;;;;;;5.15;4.70;;;;;;;;;;5014175;28;20029;-55
2021/06/18 04:45:17;;;;;;;4.93;4.53;;;;;;;;;;4999154;28;20338;-56
2021/06/18 04:47:42;;;;;;;4.82;4.43;;;;;;;;;;5006657;28;20026;-54
2021/06/18 04:50:08;;;;;;;4.90;4.50;;;;;;;;;;4990782;28;20034;-56
2021/06/18 04:52:33;;;;;;;5.18;4.68;;;;;;;;;;4988473;28;20101;-53
2021/06/18 04:55:01;;;;;;;4.78;4.38;;;;;;;;;;4987398;28;20376;-53
2021/06/18 04:57:27;;;;;;;5.20;4.70;;;;;;;;;;4989656;28;20105;-53
2021/06/18 04:59:52;;;;;;;5.32;4.82;;;;;;;;;;5000762;28;20117;-56
2021/06/18 05:02:17;;;;;;;5.20;4.70;;;;;;;;;;5005748;28;20525;-57
2021/06/18 05:04:43;;;;;;;5.07;4.68;;;;;;;;;;5006723;28;20449;-52
2021/06/18 05:07:08;;;;;;;5.20;4.70;;;;;;;;;;5007588;28;20062;-53
2021/06/18 05:09:33;;;;;;;4.55;4.15;;;;;;;;;;5007433;28;20510;-53
2021/06/18 05:12:00;;;;;;;5.07;4.68;;;;;;;;;;5009546;28;20025;-57
2021/06/18 05:14:25;;;;;;;5.13;4.68;;;;;;;;;;5011066;28;20018;-56
2021/06/18 05:16:51;;;;;;;4.72;4.22;;;;;;;;;;5009685;28;20033;-55
2021/06/18 05:19:16;;;;;;;4.93;4.53;;;;;;;;;;5010500;28;20105;-53
2021/06/18 05:21:41;;;;;;;4.97;4.47;;;;;;;;;;5010017;28;20115;-57
2021/06/18 05:24:07;;;;;;;5.20;4.70;;;;;;;;;;4994926;28;20626;-56
2021/06/18 05:26:32;;;;;;;4.80;4.40;;;;;;;;;;4990513;28;20037;-55
2021/06/18 05:28:58;;;;;;;4.75;4.25;;;;;;;;;;4992865;28;20490;-55
2021/06/18 05:31:24;;;;;;;4.88;4.45;;;;;;;;;;5011333;28;20056;-57
2021/06/18 05:33:49;;;;;;;4.70;4.30;;;;;;;;;;4981069;28;20553;-54
2021/06/18 05:36:15;;;;;;;4.75;4.30;;;;;;;;;;5004601;28;20034;-53
2021/06/18 05:38:40;;;;;;;4.40;4.00;;;;;;;;;;4984573;28;20025;-53
2021/06/18 05:41:05;;;;;;;4.95;4.55;;;;;;;;;;5010612;28;20026;-53
2021/06/18 05:43:31;;;;;;;4.70;4.30;;;;;;;;;;5023324;28;20026;-52
2021/06/18 05:45:56;;;;;;;5.47;4.97;;;;;;;;;;5023699;28;20022;-56
2021/06/18 05:48:21;;;;;;;5.03;4.63;;;;;;;;;;5009367;28;20509;-56
2021/06/18 05:50:47;;;;;;;4.47;4.07;;;;;;;;;;5011942;28;20030;-52
2021/06/18 05:53:13;;;;;;;4.55;4.13;;;;;;;;;;5003580;28;20157;-56
2021/06/18 05:55:38;;;;;;;4.63;4.18;;;;;;;;;;4990519;28;20101;-55
2021/06/18 05:58:03;;;;;;;4.82;4.30;;;;;;;;;;4990715;28;20407;-56
2021/06/18 06:00:29;;;;;;;5.00;4.50;;;;;;;;;;4998728;28;20467;-55
2021/06/18 06:02:55;;;;;;;4.93;4.18;;;;;;;;;;5011391;28;20069;-56
2021/06/18 06:05:21;;;;;;;5.25;4.40;;;;;;;;;;5008171;28;20061;-53
2021/06/18 06:07:48;;;;;;;4.60;4.20;;;;;;;;;;4991537;28;20526;-58
2021/06/18 06:10:14;;;;;;;5.35;4.20;;;;;;;;;;4991363;28;20487;-52
2021/06/18 06:12:39;;;;;;;4.65;4.25;;;;;;;;;;4990543;28;20278;-53
2021/06/18 06:15:05;;;;;;;5.45;4.18;;;;;;;;;;4990860;28;20022;-55
2021/06/18 06:17:30;;;;;;;6.03;3.90;;;;;;;;;;5010402;28;20037;-55
2021/06/18 06:19:56;;;;;;;4.95;4.47;;;;;;;;;;5010515;28;20459;-53
2021/06/18 06:22:21;;;;;;;7.60;4.35;;;;;;;;;;5010543;28;20108;-53
2021/06/18 06:24:47;;;;;;;7.95;4.30;;;;;;;;;;4990861;28;20031;-56
2021/06/18 06:27:12;;;;;;;5.25;4.03;;;;;;;;;;4992107;28;20452;-52
2021/06/18 06:29:37;;;;;;;5.35;4.20;;;;;;;;;;5010538;28;20443;-55
2021/06/18 06:32:03;;;;;;;5.60;4.22;;;;;;;;;;5010917;28;20108;-58
2021/06/18 06:34:28;;;;;;;5.32;4.22;;;;;;;;;;5010380;28;20034;-55
2021/06/18 06:36:54;;;;;;;7.47;4.78;;;;;;;;;;5003685;28;20342;-54
2021/06/18 06:39:19;;;;;;;6.43;4.03;;;;;;;;;;4991718;28;20026;-54
2021/06/18 06:41:44;;;;;;;5.30;4.18;;;;;;;;;;4990873;28;20026;-54
2021/06/18 06:44:10;;;;;;;5.32;4.00;;;;;;;;;;4990802;28;20054;-52
2021/06/18 06:46:36;;;;;;;6.90;4.10;;;;;;;;;;5002752;28;20144;-56
2021/06/18 06:49:01;;;;;;;5.82;4.30;;;;;;;;;;5009974;28;20026;-55
2021/06/18 06:51:27;;;;;;;5.35;4.10;;;;;;;;;;5010247;28;20018;-53
2021/06/18 06:53:52;;;;;;;4.70;4.20;;;;;;;;;;5022201;28;20049;-56
2021/06/18 06:56:17;;;;;;;4.50;3.70;;;;;;;;;;5029929;28;20061;-53
2021/06/18 06:58:43;;;;;;;4.85;4.15;;;;;;;;;;5029992;28;20505;-53
2021/06/18 07:01:11;;;;;;;4.70;4.18;;;;;;;;;;5005541;28;20116;-56
2021/06/18 07:03:36;;;;;;;6.40;3.72;;;;;;;;;;5006172;28;20062;-54
2021/06/18 07:06:02;;;;;;;4.22;3.63;;;;;;;;;;5026145;28;20520;-55
2021/06/18 07:08:27;;;;;;;4.57;3.90;;;;;;;;;;5024046;28;20502;-55
2021/06/18 07:10:55;;;;;;;7.22;3.83;;;;;;;;;;5010190;28;20522;-52
2021/06/18 07:13:20;;;;;;;8.95;4.07;;;;;;;;;;4991789;28;20022;-56
2021/06/18 07:15:46;;;;;;;7.80;4.65;;;;;;;;;;5029596;23;20055;-63
2021/06/18 07:18:12;;;;;;;7.47;4.43;;;;;;;;;;5028849;28;20032;-65
2021/06/18 07:20:38;;;;;;;6.35;4.00;;;;;;;;;;5028673;28;20113;-64
2021/06/18 07:23:03;;;;;;;5.50;4.10;;;;;;;;;;5026895;28;20096;-64
2021/06/18 07:25:28;;;;;;;7.13;3.97;;;;;;;;;;5015180;28;20033;-60
2021/06/18 07:27:54;;;;;;;6.18;4.28;;;;;;;;;;5028514;28;20389;-65
2021/06/18 07:30:20;;;;;;;6.97;4.10;;;;;;;;;;5008661;28;20057;-63
2021/06/18 07:32:45;;;;;;;7.95;4.07;;;;;;;;;;5014904;28;20028;-63
2021/06/18 07:35:10;;;;;;;7.28;4.13;;;;;;;;;;5009809;28;20026;-62
2021/06/18 07:37:36;;;;;;;5.63;4.07;;;;;;;;;;5008931;28;20135;-64
2021/06/18 07:40:01;;;;;;;9.10;4.18;;;;;;;;;;5008691;28;20272;-64
2021/06/18 07:42:27;;;;;;;6.53;4.20;;;;;;;;;;5003949;28;20514;-60
2021/06/18 07:44:52;;;;;;;6.75;4.15;;;;;;;;;;5007923;28;20024;-65
2021/06/18 07:47:17;;;;;;;5.65;3.90;;;;;;;;;;5009136;28;20506;-64
2021/06/18 07:49:42;;;;;;;6.25;3.85;;;;;;;;;;5008360;28;20430;-61
2021/06/18 07:52:08;;;;;;;5.97;4.03;;;;;;;;;;5009434;28;20434;-62
2021/06/18 07:54:33;;;;;;;5.38;3.95;;;;;;;;;;5008655;28;20056;-64
2021/06/18 07:56:59;;;;;;;6.22;3.90;;;;;;;;;;5007303;28;20091;-63
2021/06/18 07:59:24;;;;;;;6.93;4.20;;;;;;;;;;5007918;28;20030;-61
2021/06/18 08:01:50;;;;;;;4.18;3.67;;;;;;;;;;5008588;28;20037;-62
2021/06/18 08:04:15;;;;;;;5.80;4.47;;;;;;;;;;5006509;28;20041;-66
2021/06/18 08:06:40;;;;;;;8.15;4.28;;;;;;;;;;5007157;28;20041;-64
2021/06/18 08:09:06;;;;;;;6.57;4.03;;;;;;;;;;5008369;28;20117;-64
2021/06/18 08:11:31;;;;;;;6.43;4.10;;;;;;;;;;5008410;28;20022;-62
2021/06/18 08:13:56;;;;;;;4.22;3.83;;;;;;;;;;5008068;28;20021;-62
2021/06/18 08:16:22;;;;;;;5.55;3.90;;;;;;;;;;5007476;28;20537;-62
2021/06/18 08:18:47;;;;;;;5.18;3.80;;;;;;;;;;5006765;28;20018;-63
2021/06/18 08:21:12;;;;;;;5.63;4.20;;;;;;;;;;5008646;28;20033;-60
2021/06/18 08:23:38;;;;;;;5.70;4.05;;;;;;;;;;5008157;28;20057;-61
2021/06/18 08:26:03;;;;;;;5.75;4.03;;;;;;;;;;5007818;28;20040;-62
2021/06/18 08:28:29;;;;;;;4.78;4.22;;;;;;;;;;5005247;28;20029;-62
2021/06/18 08:30:54;;;;;;;5.43;4.25;;;;;;;;;;5000234;28;20383;-64
2021/06/18 08:33:20;;;;;;;5.43;4.10;;;;;;;;;;5007794;28;20099;-62
2021/06/18 08:35:45;;;;;;;5.80;4.07;;;;;;;;;;5004385;28;20489;-66
2021/06/18 08:38:11;;;;;;;5.05;4.10;;;;;;;;;;5008106;28;20026;-64
2021/06/18 08:40:36;;;;;;;6.50;4.30;;;;;;;;;;5007673;28;20322;-63
2021/06/18 08:43:02;;;;;;;4.93;4.15;;;;;;;;;;5017506;28;20116;-62
2021/06/18 08:45:29;;;;;;;5.25;3.80;;;;;;;;;;5022657;28;20026;-63
2021/06/18 08:47:54;;;;;;;5.25;4.10;;;;;;;;;;5007720;28;20028;-63
2021/06/18 08:50:23;;;;;;;5.22;4.10;;;;;;;;;;5007038;28;20026;-64
2021/06/18 08:52:50;;;;;;;5.13;4.50;;;;;;;;;;5008790;28;20740;-62
2021/06/18 08:55:20;;;;;;;5.03;4.00;;;;;;;;;;5007289;28;20018;-64
2021/06/18 08:57:49;;;;;;;4.32;3.72;;;;;;;;;;5008092;28;20512;-65
2021/06/18 09:00:16;;;;;;;5.68;3.88;;;;;;;;;;5007142;28;20034;-64
2021/06/18 09:02:42;;;;;;;5.80;3.83;;;;;;;;;;5007466;28;20033;-63
2021/06/18 09:05:09;;;;;;;4.03;3.50;;;;;;;;;;5006606;28;20028;-63
2021/06/18 09:07:46;;;;;;;5.68;4.30;;;;;;;;;;5007557;28;20033;-64
2021/06/18 09:10:41;;;;;;;5.60;3.92;;;;;;;;;;5007344;28;20026;-61
2021/06/18 09:13:22;;;;;;;6.30;3.97;;;;;;;;;;5007610;28;20069;-64
2021/06/18 09:15:51;;;;;;;5.65;4.28;;;;;;;;;;5005330;28;20099;-63
2021/06/18 09:18:21;;;;;;;4.78;3.80;;;;;;;;;;5007157;28;20034;-64
2021/06/18 09:20:46;;;;;;;6.32;4.18;;;;;;;;;;5006496;28;20109;-63
2021/06/18 09:23:28;;;;;;;4.70;3.63;;;;;;;;;;4973465;28;20113;-65
2021/06/18 09:26:24;;;;;;;4.45;4.05;;;;;;;;;;5006668;28;20042;-64
2021/06/18 09:28:58;;;;;;;5.45;3.90;;;;;;;;;;5004524;28;20037;-64
2021/06/18 09:31:27;;;;;;;5.72;3.95;;;;;;;;;;5008378;28;20125;-65
2021/06/18 09:33:53;;;;;;;4.43;4.00;;;;;;;;;;5003875;28;20022;-64
2021/06/18 09:36:18;;;;;;;5.32;4.43;;;;;;;;;;5006619;28;20036;-62
2021/06/18 09:38:49;;;;;;;5.93;4.30;;;;;;;;;;5007588;28;20026;-64
2021/06/18 09:41:30;;;;;;;4.82;3.97;;;;;;;;;;5007938;28;20028;-64
2021/06/18 09:43:59;;;;;;;5.65;4.20;;;;;;;;;;5014552;28;20029;-63
2021/06/18 09:46:43;;;;;;;5.10;4.20;;;;;;;;;;5008176;28;20044;-63
2021/06/18 09:49:30;;;;;;;6.30;4.47;;;;;;;;;;5005377;28;20022;-64
2021/06/18 09:52:08;;;;;;;5.15;4.40;;;;;;;;;;5007487;28;20124;-65
2021/06/18 09:54:38;;;;;;;6.28;4.07;;;;;;;;;;5007743;28;20461;-65
2021/06/18 09:57:14;;;;;;;6.00;4.45;;;;;;;;;;5010368;28;20030;-65
2021/06/18 09:59:47;;;;;;;6.18;4.07;;;;;;;;;;5010735;28;20041;-62
2021/06/18 10:02:12;;;;;;;4.43;3.88;;;;;;;;;;5011222;28;20320;-65
2021/06/18 10:04:38;;;;;;;4.40;3.88;;;;;;;;;;5009907;28;20030;-63
2021/06/18 10:07:03;;;;;;;5.63;4.25;;;;;;;;;;5010018;28;20434;-65
2021/06/18 10:09:29;;;;;;;4.60;4.10;;;;;;;;;;5010320;28;20386;-65
2021/06/18 10:11:54;;;;;;;5.68;4.05;;;;;;;;;;5009990;28;20033;-64
2021/06/18 10:14:20;;;;;;;6.45;4.20;;;;;;;;;;5006978;28;20029;-63
2021/06/18 10:16:45;;;;;;;5.22;4.05;;;;;;;;;;5009382;28;20593;-64
2021/06/18 10:19:11;;;;;;;5.13;4.63;;;;;;;;;;4991684;28;20084;-62
2021/06/18 10:22:11;;;;;;;4.90;4.40;;;;;;;;;;5010463;28;20036;-62
2021/06/18 10:24:57;;;;;;;4.70;4.07;;;;;;;;;;4992906;28;20590;-65
2021/06/18 10:27:39;;;;;;;4.57;3.92;;;;;;;;;;5011632;28;20267;-60
2021/06/18 10:30:24;;;;;;;4.35;3.95;;;;;;;;;;5009998;28;20026;-63
2021/06/18 10:32:49;;;;;;;5.25;4.45;;;;;;;;;;5014605;28;20753;-64
2021/06/18 10:35:51;;;;;;;6.18;4.07;;;;;;;;;;4996259;28;20029;-63
2021/06/18 10:38:34;;;;;;;5.07;3.65;;;;;;;;;;5016825;28;20517;-64
2021/06/18 10:41:24;;;;;;;5.30;4.38;;;;;;;;;;5016170;28;20040;-63
2021/06/18 10:43:57;;;;;;;7.03;4.13;;;;;;;;;;5022853;28;20048;-64
2021/06/18 10:46:25;;;;;;;4.13;3.72;;;;;;;;;;5019607;28;20237;-65
2021/06/18 10:48:51;;;;;;;4.30;3.75;;;;;;;;;;5009481;28;20029;-63
2021/06/18 10:51:38;;;;;;;6.45;4.25;;;;;;;;;;4996086;28;20026;-60
2021/06/18 10:54:11;;;;;;;6.32;4.57;;;;;;;;;;5010974;28;20052;-63
2021/06/18 10:56:46;;;;;;;6.55;4.20;;;;;;;;;;5020439;28;20033;-63
2021/06/18 10:59:12;;;;;;;5.28;4.57;;;;;;;;;;5028525;28;20350;-65
2021/06/18 11:01:39;;;;;;;5.00;4.32;;;;;;;;;;5016306;28;20041;-62
2021/06/18 11:04:04;;;;;;;5.70;4.75;;;;;;;;;;5010737;28;20041;-64
2021/06/18 11:06:45;;;;;;;5.00;4.07;;;;;;;;;;5011923;28;20245;-63
2021/06/18 11:09:11;;;;;;;4.75;4.22;;;;;;;;;;5017242;28;20445;-64
2021/06/18 11:11:37;;;;;;;5.15;4.55;;;;;;;;;;5012795;28;20030;-65
2021/06/18 11:14:11;;;;;;;5.80;4.60;;;;;;;;;;5011895;28;20393;-64
2021/06/18 11:16:38;;;;;;;5.63;4.47;;;;;;;;;;5014296;28;20029;-63
2021/06/18 11:19:35;;;;;;;5.20;4.45;;;;;;;;;;4999636;28;20113;-65
2021/06/18 11:22:00;;;;;;;5.00;4.18;;;;;;;;;;4974258;28;20501;-63
2021/06/18 11:24:42;;;;;;;5.38;4.20;;;;;;;;;;4996497;28;20046;-63
2021/06/18 11:27:28;;;;;;;5.18;4.68;;;;;;;;;;4993924;28;20026;-64
2021/06/18 11:30:32;;;;;;;5.75;4.30;;;;;;;;;;4985763;28;20022;-65
2021/06/18 11:32:57;;;;;;;5.38;4.10;;;;;;;;;;5002771;28;20045;-65
2021/06/18 11:35:32;;;;;;;6.18;4.38;;;;;;;;;;5022377;28;20025;-63
2021/06/18 11:38:09;;;;;;;6.28;4.68;;;;;;;;;;5006744;28;20030;-64
2021/06/18 11:40:35;;;;;;;4.80;3.90;;;;;;;;;;4989900;28;20034;-64
2021/06/18 11:43:01;;;;;;;4.78;4.28;;;;;;;;;;4987241;28;20034;-65
2021/06/18 11:45:26;;;;;;;4.88;4.30;;;;;;;;;;5003219;28;20036;-65
2021/06/18 11:47:52;;;;;;;4.53;4.13;;;;;;;;;;5006159;28;20034;-65
2021/06/18 11:50:36;;;;;;;5.10;4.60;;;;;;;;;;5012692;28;20032;-65
2021/06/18 11:53:02;;;;;;;5.45;4.20;;;;;;;;;;5020470;28;20137;-64
2021/06/18 11:55:28;;;;;;;4.90;4.30;;;;;;;;;;5022817;28;20064;-65
2021/06/18 11:57:54;;;;;;;5.00;4.10;;;;;;;;;;5001605;28;20065;-65
2021/06/18 12:00:20;;;;;;;5.72;4.45;;;;;;;;;;4996545;28;20065;-65
2021/06/18 12:02:46;;;;;;;5.10;4.60;;;;;;;;;;4972889;28;20038;-64
2021/06/18 12:05:17;;;;;;;5.85;4.45;;;;;;;;;;5003867;28;20076;-64
2021/06/18 12:07:42;;;;;;;4.68;4.13;;;;;;;;;;5006469;28;20025;-65
2021/06/18 12:10:08;;;;;;;5.47;4.10;;;;;;;;;;5005744;28;20081;-64
2021/06/18 12:12:48;;;;;;;5.30;4.15;;;;;;;;;;5005337;28;20034;-64
2021/06/18 12:15:21;;;;;;;5.18;4.32;;;;;;;;;;4987635;28;20113;-64
2021/06/18 12:17:49;;;;;;;4.63;4.22;;;;;;;;;;5005580;28;20030;-64
2021/06/18 12:20:22;;;;;;;4.53;4.13;;;;;;;;;;5004635;28;20364;-65
2021/06/18 12:22:47;;;;;;;5.55;4.10;;;;;;;;;;5007073;28;20087;-65
2021/06/18 12:25:12;;;;;;;4.85;4.35;;;;;;;;;;5005263;28;20487;-63
2021/06/18 12:27:38;;;;;;;6.70;4.35;;;;;;;;;;5004777;28;20061;-63
2021/06/18 12:30:08;;;;;;;4.78;3.90;;;;;;;;;;5006205;28;20105;-66
2021/06/18 12:32:37;;;;;;;5.03;4.50;;;;;;;;;;4988071;28;20069;-64
2021/06/18 12:35:03;;;;;;;5.55;4.45;;;;;;;;;;5003717;28;20049;-63
2021/06/18 12:37:34;;;;;;;4.45;4.05;;;;;;;;;;4995984;28;20033;-64
2021/06/18 12:40:05;;;;;;;4.60;4.07;;;;;;;;;;5005074;28;20033;-63
2021/06/18 12:42:38;;;;;;;;;;;;;;;;;;5003875;28;20398;-64
2021/06/18 12:45:26;;;;;;;6.30;4.28;;;;;;;;;;5004770;28;20333;-65
2021/06/18 12:48:32;;;;;;;4.43;4.00;;;;;;;;;;5005712;28;20030;-63
2021/06/18 12:50:59;;;;;;;6.13;4.18;;;;;;;;;;4994390;28;20041;-63
2021/06/18 12:53:29;;;;;;;4.93;4.30;;;;;;;;;;5003736;28;20148;-63
2021/06/18 12:55:54;;;;;;;4.45;3.97;;;;;;;;;;5004863;28;20068;-62
2021/06/18 12:58:23;;;;;;;4.95;4.40;;;;;;;;;;5007252;28;20030;-63
2021/06/18 13:00:59;;;;;;;4.93;4.10;;;;;;;;;;5006910;28;20030;-61
2021/06/18 13:03:32;;;;;;;4.55;4.15;;;;;;;;;;5006303;28;20040;-63
2021/06/18 13:05:57;;;;;;;4.38;3.97;;;;;;;;;;5006727;28;20068;-65
2021/06/18 13:08:23;;;;;;;4.85;3.95;;;;;;;;;;4989812;28;20033;-64
2021/06/18 13:10:51;;;;;;;4.50;4.00;;;;;;;;;;5007752;28;20026;-59
2021/06/18 13:13:30;;;;;;;6.07;4.28;;;;;;;;;;5010066;28;20092;-63
2021/06/18 13:16:09;;;;;;;5.32;4.38;;;;;;;;;;5001097;28;20025;-64
2021/06/18 13:18:57;;;;;;;5.15;4.50;;;;;;;;;;5006805;28;20030;-64
2021/06/18 13:21:40;;;;;;;4.97;3.97;;;;;;;;;;5007690;28;20026;-64
2021/06/18 13:24:19;;;;;;;5.15;4.40;;;;;;;;;;5007427;28;20084;-63
2021/06/18 13:26:45;;;;;;;4.90;4.22;;;;;;;;;;5006010;28;20565;-64
2021/06/18 13:29:15;;;;;;;4.57;4.18;;;;;;;;;;5002793;28;20042;-63
2021/06/18 13:31:40;;;;;;;4.55;4.15;;;;;;;;;;5008583;28;20042;-63
2021/06/18 13:34:09;;;;;;;5.63;4.18;;;;;;;;;;5011433;28;20544;-62
2021/06/18 13:36:41;;;;;;;4.85;4.40;;;;;;;;;;5018504;28;20026;-63
2021/06/18 13:39:22;;;;;;;5.40;4.07;;;;;;;;;;4999338;28;20057;-62
2021/06/18 13:41:48;;;;;;;4.60;4.20;;;;;;;;;;5004460;28;20514;-62
2021/06/18 13:44:13;;;;;;;4.43;4.03;;;;;;;;;;5002442;28;20041;-62
2021/06/18 13:46:39;;;;;;;5.13;4.63;;;;;;;;;;5019093;28;20030;-64
2021/06/18 13:49:05;;;;;;;4.60;4.05;;;;;;;;;;5020021;28;20025;-63
2021/06/18 13:51:30;;;;;;;5.07;4.22;;;;;;;;;;5019676;28;20111;-66
2021/06/18 13:53:58;;;;;;;4.60;4.20;;;;;;;;;;5020613;28;20025;-62
2021/06/18 13:56:23;;;;;;;4.55;3.90;;;;;;;;;;5018683;28;20033;-63
2021/06/18 13:58:49;;;;;;;5.78;4.63;;;;;;;;;;5019991;28;20026;-63
2021/06/18 14:01:14;;;;;;;5.60;4.20;;;;;;;;;;5015158;28;20038;-64
2021/06/18 14:03:40;;;;;;;4.95;4.43;;;;;;;;;;5001526;28;20046;-64
2021/06/18 14:06:06;;;;;;;4.30;3.90;;;;;;;;;;4990010;28;20117;-64
2021/06/18 14:08:31;;;;;;;5.00;3.90;;;;;;;;;;5002571;28;20703;-64
2021/06/18 14:10:57;;;;;;;5.70;4.03;;;;;;;;;;5010292;28;20037;-63
2021/06/18 14:13:22;;;;;;;4.47;3.70;;;;;;;;;;5010311;28;20026;-65
2021/06/18 14:15:50;;;;;;;4.85;4.18;;;;;;;;;;5009632;28;20034;-64
2021/06/18 14:18:19;;;;;;;7.43;4.25;;;;;;;;;;5009796;28;20060;-62
2021/06/18 14:20:46;;;;;;;4.53;4.13;;;;;;;;;;5009165;28;20029;-61
2021/06/18 14:23:11;;;;;;;4.80;4.40;;;;;;;;;;5010467;28;20386;-64
2021/06/18 14:25:37;;;;;;;4.68;4.15;;;;;;;;;;5009053;28;20034;-64
2021/06/18 14:28:02;;;;;;;4.47;4.07;;;;;;;;;;5010068;28;20034;-63
2021/06/18 14:30:28;;;;;;;4.47;4.07;;;;;;;;;;5009425;28;20030;-64
2021/06/18 14:32:56;;;;;;;4.45;4.05;;;;;;;;;;5006253;28;20030;-63
2021/06/18 14:35:22;;;;;;;4.60;4.07;;;;;;;;;;5007419;28;20028;-64
2021/06/18 14:37:48;;;;;;;4.93;4.03;;;;;;;;;;5009352;28;20030;-62
2021/06/18 14:40:14;;;;;;;4.40;4.00;;;;;;;;;;5009463;28;20033;-65
2021/06/18 14:42:40;;;;;;;4.90;4.00;;;;;;;;;;5009672;28;20026;-64
2021/06/18 14:45:06;;;;;;;4.68;4.28;;;;;;;;;;5008876;28;20057;-62
2021/06/18 14:47:32;;;;;;;4.40;4.00;;;;;;;;;;5009679;28;20483;-64
2021/06/18 14:49:57;;;;;;;4.55;4.15;;;;;;;;;;5008232;28;20065;-62
2021/06/18 14:52:22;;;;;;;4.30;3.90;;;;;;;;;;5008869;28;20116;-65